createdAt,value
2022-08-05T00:04:55.561Z,2.20
2022-08-05T00:09:56.422Z,2.78
2022-08-05T00:14:55.312Z,2.50
2022-08-05T00:20:02.472Z,2.88
2022-08-05T00:25:03.409Z,2.67
2022-08-05T00:30:11.495Z,2.90
2022-08-05T00:35:10.951Z,3.72
2022-08-05T00:40:12.617Z,3.00
2022-08-05T00:45:13.562Z,2.60
2022-08-05T00:55:13.863Z,3.50
2022-08-05T01:00:16.936Z,2.58
2022-08-05T01:05:15.962Z,2.53
2022-08-05T01:10:19.702Z,2.25
2022-08-05T01:15:36.166Z,2.55
2022-08-05T01:20:42.512Z,3.03
2022-08-05T01:26:02.294Z,2.25
2022-08-05T01:31:05.943Z,2.50
2022-08-05T01:36:13.135Z,3.13
2022-08-05T01:41:18.180Z,2.38
2022-08-05T01:46:42.119Z,2.13
2022-08-05T01:51:43.895Z,2.67
2022-08-05T01:58:12.973Z,2.05
2022-08-05T02:02:15.998Z,2.40
2022-08-05T02:07:21.856Z,2.03
2022-08-05T02:12:29.015Z,3.13
2022-08-05T02:18:32.173Z,2.67
2022-08-05T02:23:02.534Z,2.47
2022-08-05T02:28:08.797Z,2.92
2022-08-05T02:33:11.491Z,2.92
2022-08-05T02:38:19.333Z,2.80
2022-08-05T02:43:20.937Z,2.95
2022-08-05T02:48:29.569Z,2.80
2022-08-05T02:53:38.961Z,3.15
2022-08-05T02:58:43.745Z,2.80
2022-08-05T03:04:08.847Z,3.17
2022-08-05T03:09:04.275Z,3.72
2022-08-05T03:14:04.245Z,3.40
2022-08-05T03:19:17.080Z,3.63
2022-08-05T03:24:29.657Z,3.93
2022-08-05T03:29:45.808Z,2.90
2022-08-05T03:34:54.146Z,3.63
2022-08-05T03:40:01.691Z,4.63
2022-08-05T03:45:22.144Z,3.25
2022-08-05T03:50:23.598Z,3.20
2022-08-05T03:56:04.209Z,3.28
2022-08-05T04:00:54.470Z,3.00
2022-08-05T04:05:55.673Z,3.28
2022-08-05T04:10:57.649Z,3.28
2022-08-05T04:16:04.412Z,3.55
2022-08-05T04:21:07.013Z,4.15
2022-08-05T04:26:10.355Z,4.63
2022-08-05T04:31:15.247Z,4.50
2022-08-05T04:36:49.431Z,4.35
2022-08-05T04:41:37.621Z,4.70
2022-08-05T04:46:37.778Z,5.00
2022-08-05T04:51:38.587Z,4.22
2022-08-05T04:56:37.909Z,4.67
2022-08-05T05:02:08.118Z,4.55
2022-08-05T05:06:57.642Z,4.35
2022-08-05T05:12:01.708Z,4.30
2022-08-05T05:17:03.318Z,5.00
2022-08-05T05:22:22.645Z,5.40
2022-08-05T05:27:23.392Z,5.37
2022-08-05T05:32:22.534Z,6.18
2022-08-05T05:37:23.167Z,4.88
2022-08-05T05:42:36.167Z,4.07
2022-08-05T05:48:06.292Z,3.88
2022-08-05T05:52:56.492Z,4.05
2022-08-05T05:57:56.278Z,3.65
2022-08-05T06:03:02.434Z,3.80
2022-08-05T06:08:03.969Z,3.90
2022-08-05T06:13:02.878Z,4.20
2022-08-05T06:18:01.934Z,4.65
2022-08-05T06:23:02.106Z,5.47
2022-08-05T06:28:12.583Z,4.75
2022-08-05T06:33:20.555Z,4.43
2022-08-05T06:38:47.025Z,4.88
2022-08-05T06:43:59.303Z,6.57
2022-08-05T06:49:01.149Z,8.65
2022-08-05T06:54:03.484Z,10.68
2022-08-05T06:59:02.377Z,12.57
2022-08-05T07:04:03.008Z,7.22
2022-08-05T07:09:04.204Z,5.32
2022-08-05T07:14:29.345Z,5.28
2022-08-05T07:24:57.955Z,4.53
2022-08-05T07:30:27.399Z,6.35
2022-08-05T07:36:02.249Z,5.88
2022-08-05T07:40:44.601Z,5.05
2022-08-05T07:45:58.118Z,6.20
2022-08-05T07:50:57.592Z,5.55
2022-08-05T07:57:01.412Z,5.32
2022-08-05T08:01:52.147Z,6.47
2022-08-05T08:06:59.196Z,5.20
2022-08-05T08:12:05.607Z,4.15
2022-08-05T08:17:11.557Z,4.18
2022-08-05T08:22:15.859Z,4.13
2022-08-05T08:27:17.114Z,3.45
2022-08-05T08:32:18.656Z,3.40
2022-08-05T08:42:34.585Z,3.07
2022-08-05T08:48:11.865Z,2.70
2022-08-05T08:53:18.131Z,2.20
2022-08-05T08:58:25.996Z,2.35
2022-08-05T09:03:25.950Z,2.92
2022-08-05T09:08:40.250Z,2.25
2022-08-05T09:14:00.864Z,3.00
2022-08-05T09:19:00.315Z,2.60
2022-08-05T09:24:08.802Z,3.60
2022-08-05T09:29:10.682Z,3.75
2022-08-05T09:34:19.450Z,3.25
2022-08-05T09:39:23.233Z,2.75
2022-08-05T09:44:37.113Z,2.75
2022-08-05T09:49:54.661Z,2.85
2022-08-05T09:55:55.239Z,2.60
2022-08-05T10:00:26.030Z,3.15
2022-08-05T10:05:27.538Z,3.30
2022-08-05T10:11:44.890Z,4.28
2022-08-05T10:17:03.560Z,2.83
2022-08-05T10:22:29.774Z,3.42
2022-08-05T10:28:13.411Z,3.25
2022-08-05T10:33:14.658Z,3.30
2022-08-05T10:38:15.874Z,3.08
2022-08-05T10:43:37.290Z,3.45
2022-08-05T10:49:01.485Z,2.47
2022-08-05T10:54:29.860Z,2.55
2022-08-05T11:00:04.323Z,2.70
2022-08-05T11:04:57.124Z,2.53
2022-08-05T11:10:03.951Z,2.38
2022-08-05T11:15:19.857Z,2.22
2022-08-05T11:20:58.022Z,2.30
2022-08-05T11:26:09.004Z,2.40
2022-08-05T11:31:56.969Z,2.10
2022-08-05T11:38:28.421Z,2.10
2022-08-05T11:44:04.762Z,3.07
2022-08-05T11:48:57.023Z,2.42
2022-08-05T11:54:40.728Z,1.73
2022-08-05T12:00:38.985Z,2.40
2022-08-05T12:05:45.293Z,1.98
2022-08-05T12:10:47.205Z,2.00
2022-08-05T12:16:58.152Z,1.95
2022-08-05T12:27:54.831Z,1.90
2022-08-05T12:32:56.321Z,1.83
2022-08-05T12:37:56.086Z,2.22
2022-08-05T12:42:57.089Z,2.08
2022-08-05T12:48:01.277Z,2.55
2022-08-05T12:53:17.927Z,2.20
2022-08-05T12:58:52.570Z,1.95
2022-08-05T13:03:48.674Z,1.85
2022-08-05T13:08:52.443Z,2.38
2022-08-05T13:14:06.008Z,2.22
2022-08-05T13:19:05.686Z,2.50
2022-08-05T13:24:05.636Z,1.75
2022-08-05T13:29:06.511Z,2.17
2022-08-05T13:34:21.944Z,1.90
2022-08-05T13:40:16.647Z,2.30
2022-08-05T13:44:46.403Z,2.60
2022-08-05T13:49:46.567Z,2.15
2022-08-05T13:54:53.500Z,2.47
2022-08-05T13:59:55.512Z,2.45
2022-08-05T14:05:15.417Z,1.98
2022-08-05T14:10:31.093Z,2.50
2022-08-05T14:16:05.260Z,2.53
2022-08-05T14:20:54.300Z,1.80
2022-08-05T14:25:54.556Z,2.20
2022-08-05T14:30:58.405Z,2.20
2022-08-05T14:35:57.208Z,2.20
2022-08-05T14:40:57.314Z,1.90
2022-08-05T14:45:56.053Z,3.03
2022-08-05T14:50:56.537Z,4.60
2022-08-05T14:55:55.293Z,3.30
2022-08-05T15:00:59.226Z,4.07
2022-08-05T15:06:07.739Z,1.88
2022-08-05T15:11:14.059Z,2.58
2022-08-05T15:16:26.221Z,1.88
2022-08-05T15:21:26.709Z,2.28
2022-08-05T15:26:32.113Z,6.50
2022-08-05T15:31:34.738Z,5.53
2022-08-05T15:36:35.392Z,4.95
2022-08-05T15:41:56.230Z,3.42
2022-08-05T15:46:53.030Z,5.05
2022-08-05T15:52:03.924Z,3.95
2022-08-05T15:57:13.092Z,3.80
2022-08-05T16:02:14.452Z,5.47
2022-08-05T16:07:21.408Z,4.80
2022-08-05T16:12:21.834Z,3.63
2022-08-05T16:17:20.681Z,3.63
2022-08-05T16:22:27.391Z,4.13
2022-08-05T16:27:32.356Z,7.03
2022-08-05T16:32:46.079Z,4.10
2022-08-05T16:38:03.420Z,3.60
2022-08-05T16:43:05.785Z,5.82
2022-08-05T16:48:06.256Z,5.25
2022-08-05T16:53:12.250Z,3.22
2022-08-05T16:58:21.573Z,2.33
2022-08-05T17:03:24.278Z,2.35
2022-08-05T17:08:36.423Z,2.85
2022-08-05T17:13:43.223Z,2.55
2022-08-05T17:18:42.610Z,3.05
2022-08-05T17:24:03.079Z,2.92
2022-08-05T17:29:09.890Z,3.88
2022-08-05T17:34:09.201Z,5.20
2022-08-05T17:39:24.528Z,6.60
2022-08-05T17:44:32.453Z,3.28
2022-08-05T17:50:00.002Z,3.35
2022-08-05T17:54:51.825Z,3.73
2022-08-05T18:00:03.092Z,4.75
2022-08-05T18:05:06.990Z,4.05
2022-08-05T18:10:10.306Z,3.38
2022-08-05T18:15:10.907Z,4.18
2022-08-05T18:20:14.897Z,3.58
2022-08-05T18:25:16.943Z,3.38
2022-08-05T18:30:15.998Z,3.67
2022-08-05T18:35:16.344Z,4.43
2022-08-05T18:40:34.030Z,4.55
2022-08-05T18:45:41.732Z,3.20
2022-08-05T18:51:01.636Z,5.60
2022-08-05T18:56:21.719Z,4.22
2022-08-05T19:01:33.371Z,4.47
2022-08-05T19:06:45.164Z,4.95
2022-08-05T19:12:00.986Z,3.30
2022-08-05T19:17:00.306Z,4.22
2022-08-05T19:21:59.134Z,4.22
2022-08-05T19:26:59.363Z,4.00
2022-08-05T19:32:03.147Z,3.28
2022-08-05T19:42:07.143Z,3.22
2022-08-05T19:47:07.925Z,3.63
2022-08-05T19:52:31.542Z,3.47
2022-08-05T19:57:47.486Z,3.53
2022-08-05T20:02:47.814Z,4.20
2022-08-05T20:07:49.057Z,3.53
2022-08-05T20:12:49.602Z,3.72
2022-08-05T20:17:48.934Z,5.65
2022-08-05T20:22:49.348Z,4.35
2022-08-05T20:27:49.642Z,3.58
2022-08-05T20:32:48.859Z,3.85
2022-08-05T20:38:06.291Z,3.13
2022-08-05T20:43:07.762Z,3.70
2022-08-05T20:48:07.314Z,3.95
2022-08-05T20:53:07.241Z,3.55
2022-08-05T20:58:16.547Z,3.65
2022-08-05T21:03:16.749Z,3.50
2022-08-05T21:08:19.482Z,4.40
2022-08-05T21:13:26.430Z,3.72
2022-08-05T21:18:38.596Z,3.88
2022-08-05T21:23:43.956Z,3.70
2022-08-05T21:28:50.885Z,3.58
2022-08-05T21:33:49.856Z,3.50
2022-08-05T21:38:48.678Z,4.30
2022-08-05T21:44:01.683Z,4.70
2022-08-05T21:49:07.115Z,3.50
2022-08-05T21:54:06.271Z,3.70
2022-08-05T21:59:22.494Z,3.58
2022-08-05T22:04:25.340Z,3.72
2022-08-05T22:09:24.441Z,3.65
2022-08-05T22:14:44.664Z,3.72
2022-08-05T22:20:00.104Z,3.17
2022-08-05T22:25:27.268Z,3.78
2022-08-05T22:30:35.144Z,3.70
2022-08-05T22:35:47.999Z,4.32
2022-08-05T22:40:49.336Z,4.75
2022-08-05T22:45:50.363Z,3.78
2022-08-05T22:50:56.251Z,3.88
2022-08-05T22:55:56.581Z,5.10
2022-08-05T23:00:57.683Z,3.78
2022-08-05T23:05:56.915Z,3.88
2022-08-05T23:10:57.106Z,3.85
2022-08-05T23:15:58.068Z,4.22
2022-08-05T23:20:57.177Z,5.63
2022-08-05T23:25:57.118Z,5.07
2022-08-05T23:30:57.155Z,4.50
2022-08-05T23:36:15.473Z,4.70
2022-08-05T23:41:14.335Z,3.92
2022-08-05T23:46:20.003Z,4.63
2022-08-05T23:51:20.696Z,5.13
2022-08-05T23:56:27.194Z,4.32
